sensor_id;sensor_type;location;lat;lon;timestamp;pressure;altitude;pressure_sealevel;temperature;humidity
1480;BME280;732;51.698;4.886;2023-04-24T00:01:15;100114.13;;;5.62;85.50
1480;BME280;732;51.698;4.886;2023-04-24T00:03:43;100114.59;;;5.58;85.86
1480;BME280;732;51.698;4.886;2023-04-24T00:06:15;100114.78;;;5.48;85.80
1480;BME280;732;51.698;4.886;2023-04-24T00:08:43;100115.59;;;5.65;86.08
1480;BME280;732;51.698;4.886;2023-04-24T00:11:12;100114.75;;;5.73;85.47
1480;BME280;732;51.698;4.886;2023-04-24T00:13:48;100118.91;;;5.83;85.06
1480;BME280;732;51.698;4.886;2023-04-24T00:16:17;100117.25;;;5.82;85.00
1480;BME280;732;51.698;4.886;2023-04-24T00:18:45;100070.69;;;5.62;85.14
1480;BME280;732;51.698;4.886;2023-04-24T00:21:14;100111.91;;;5.82;84.84
1480;BME280;732;51.698;4.886;2023-04-24T00:23:44;100091.34;;;5.60;85.55
1480;BME280;732;51.698;4.886;2023-04-24T00:26:12;100119.22;;;5.80;85.40
1480;BME280;732;51.698;4.886;2023-04-24T00:28:41;100119.72;;;5.84;84.86
1480;BME280;732;51.698;4.886;2023-04-24T00:31:10;100118.34;;;6.04;84.55
1480;BME280;732;51.698;4.886;2023-04-24T00:33:41;100115.03;;;5.94;84.75
1480;BME280;732;51.698;4.886;2023-04-24T00:36:09;100109.75;;;5.78;84.87
1480;BME280;732;51.698;4.886;2023-04-24T00:38:37;100122.38;;;5.84;85.32
1480;BME280;732;51.698;4.886;2023-04-24T00:41:06;100114.56;;;5.82;84.92
1480;BME280;732;51.698;4.886;2023-04-24T00:43:40;100115.38;;;5.91;84.95
1480;BME280;732;51.698;4.886;2023-04-24T00:46:10;100122.38;;;5.84;84.76
1480;BME280;732;51.698;4.886;2023-04-24T00:48:43;100080.84;;;5.66;84.63
1480;BME280;732;51.698;4.886;2023-04-24T00:51:15;100119.72;;;5.84;84.93
1480;BME280;732;51.698;4.886;2023-04-24T00:53:46;100103.75;;;5.76;84.51
1480;BME280;732;51.698;4.886;2023-04-24T00:56:15;100115.44;;;5.75;84.62
1480;BME280;732;51.698;4.886;2023-04-24T00:58:43;100089.50;;;5.68;84.73
1480;BME280;732;51.698;4.886;2023-04-24T01:01:14;100116.06;;;5.93;84.15
1480;BME280;732;51.698;4.886;2023-04-24T01:03:42;100122.38;;;5.84;84.59
1480;BME280;732;51.698;4.886;2023-04-24T01:06:12;100098.44;;;5.84;84.49
1480;BME280;732;51.698;4.886;2023-04-24T01:08:44;100123.56;;;5.90;84.53
1480;BME280;732;51.698;4.886;2023-04-24T01:11:13;100105.09;;;5.80;84.28
1480;BME280;732;51.698;4.886;2023-04-24T01:13:45;100122.88;;;5.79;84.16
1480;BME280;732;51.698;4.886;2023-04-24T01:16:15;100083.34;;;5.51;84.33
1480;BME280;732;51.698;4.886;2023-04-24T01:18:44;100102.63;;;5.62;83.88
1480;BME280;732;51.698;4.886;2023-04-24T01:21:16;100109.88;;;5.93;84.08
1480;BME280;732;51.698;4.886;2023-04-24T01:23:46;100114.75;;;5.81;84.29
1480;BME280;732;51.698;4.886;2023-04-24T01:26:16;100114.72;;;5.89;84.06
1480;BME280;732;51.698;4.886;2023-04-24T01:28:47;100103.75;;;5.92;83.67
1480;BME280;732;51.698;4.886;2023-04-24T01:31:15;100117.19;;;5.99;83.90
1480;BME280;732;51.698;4.886;2023-04-24T01:33:44;100101.59;;;5.79;83.79
1480;BME280;732;51.698;4.886;2023-04-24T01:36:12;100130.69;;;5.89;84.70
1480;BME280;732;51.698;4.886;2023-04-24T01:38:45;100122.88;;;5.96;84.38
1480;BME280;732;51.698;4.886;2023-04-24T01:41:15;100100.91;;;5.85;84.28
1480;BME280;732;51.698;4.886;2023-04-24T01:43:44;100122.22;;;5.85;84.30
1480;BME280;732;51.698;4.886;2023-04-24T01:46:19;100091.78;;;5.80;84.37
1480;BME280;732;51.698;4.886;2023-04-24T01:48:47;100130.44;;;6.15;83.99
1480;BME280;732;51.698;4.886;2023-04-24T01:51:16;100125.50;;;6.04;84.66
1480;BME280;732;51.698;4.886;2023-04-24T01:53:47;100121.03;;;5.96;84.46
1480;BME280;732;51.698;4.886;2023-04-24T01:56:20;100085.97;;;5.76;84.93
1480;BME280;732;51.698;4.886;2023-04-24T01:58:52;100095.78;;;5.76;85.40
1480;BME280;732;51.698;4.886;2023-04-24T02:01:23;100065.75;;;5.42;85.37
1480;BME280;732;51.698;4.886;2023-04-24T02:03:52;100116.91;;;5.61;85.68
1480;BME280;732;51.698;4.886;2023-04-24T02:06:22;100095.00;;;5.42;85.67
1480;BME280;732;51.698;4.886;2023-04-24T02:08:53;100133.41;;;5.56;85.75
1480;BME280;732;51.698;4.886;2023-04-24T02:11:21;100131.56;;;5.57;85.22
1480;BME280;732;51.698;4.886;2023-04-24T02:13:55;100136.88;;;5.57;85.48
1480;BME280;732;51.698;4.886;2023-04-24T02:16:23;100140.06;;;5.60;85.65
1480;BME280;732;51.698;4.886;2023-04-24T02:18:54;100133.06;;;5.59;85.56
1480;BME280;732;51.698;4.886;2023-04-24T02:21:23;100138.22;;;5.69;85.18
1480;BME280;732;51.698;4.886;2023-04-24T02:23:53;100109.13;;;5.43;84.92
1480;BME280;732;51.698;4.886;2023-04-24T02:26:21;100131.75;;;5.63;84.79
1480;BME280;732;51.698;4.886;2023-04-24T02:28:51;100123.59;;;5.65;84.96
1480;BME280;732;51.698;4.886;2023-04-24T02:31:20;100130.56;;;5.74;84.51
1480;BME280;732;51.698;4.886;2023-04-24T02:33:48;100075.38;;;5.51;84.54
1480;BME280;732;51.698;4.886;2023-04-24T02:36:16;100126.72;;;5.85;84.17
1480;BME280;732;51.698;4.886;2023-04-24T02:38:44;100126.53;;;5.86;84.57
1480;BME280;732;51.698;4.886;2023-04-24T02:41:14;100106.78;;;5.64;84.48
1480;BME280;732;51.698;4.886;2023-04-24T02:43:42;100123.91;;;5.70;84.16
1480;BME280;732;51.698;4.886;2023-04-24T02:46:18;100117.59;;;5.71;84.32
1480;BME280;732;51.698;4.886;2023-04-24T02:48:49;100114.25;;;5.61;84.79
1480;BME280;732;51.698;4.886;2023-04-24T02:51:19;100111.13;;;5.57;85.05
1480;BME280;732;51.698;4.886;2023-04-24T02:53:50;100111.97;;;5.41;85.30
1480;BME280;732;51.698;4.886;2023-04-24T02:56:23;100114.78;;;5.48;84.88
1480;BME280;732;51.698;4.886;2023-04-24T02:58:53;100109.13;;;5.43;84.28
1480;BME280;732;51.698;4.886;2023-04-24T03:01:21;100108.63;;;5.39;84.90
1480;BME280;732;51.698;4.886;2023-04-24T03:03:51;100099.81;;;5.22;84.70
1480;BME280;732;51.698;4.886;2023-04-24T03:06:20;100105.31;;;5.12;84.99
1480;BME280;732;51.698;4.886;2023-04-24T03:08:50;100096.31;;;4.97;85.66
1480;BME280;732;51.698;4.886;2023-04-24T03:11:22;100100.13;;;4.94;85.32
1480;BME280;732;51.698;4.886;2023-04-24T03:13:52;100091.81;;;4.81;86.23
1480;BME280;732;51.698;4.886;2023-04-24T03:16:20;100091.31;;;4.85;86.19
1480;BME280;732;51.698;4.886;2023-04-24T03:18:48;100094.81;;;4.94;85.74
1480;BME280;732;51.698;4.886;2023-04-24T03:21:19;100091.50;;;4.84;85.86
1480;BME280;732;51.698;4.886;2023-04-24T03:23:50;100062.72;;;4.71;86.06
1480;BME280;732;51.698;4.886;2023-04-24T03:26:19;100074.53;;;4.77;85.92
1480;BME280;732;51.698;4.886;2023-04-24T03:29:03;100087.84;;;4.85;85.87
1480;BME280;732;51.698;4.886;2023-04-24T03:31:36;100072.69;;;4.69;86.32
1480;BME280;732;51.698;4.886;2023-04-24T03:34:07;100088.66;;;4.85;86.87
1480;BME280;732;51.698;4.886;2023-04-24T03:36:35;100097.78;;;4.83;86.76
1480;BME280;732;51.698;4.886;2023-04-24T03:39:07;100063.03;;;4.60;87.09
1480;BME280;732;51.698;4.886;2023-04-24T03:41:37;100092.78;;;4.80;86.73
1480;BME280;732;51.698;4.886;2023-04-24T03:44:26;100064.22;;;4.65;86.59
1480;BME280;732;51.698;4.886;2023-04-24T03:46:54;100111.94;;;4.92;86.37
1480;BME280;732;51.698;4.886;2023-04-24T03:49:24;100118.25;;;4.99;86.30
1480;BME280;732;51.698;4.886;2023-04-24T03:51:53;100118.59;;;5.04;85.87
1480;BME280;732;51.698;4.886;2023-04-24T03:54:23;100114.44;;;5.01;86.04
1480;BME280;732;51.698;4.886;2023-04-24T03:56:53;100082.53;;;5.01;85.96
1480;BME280;732;51.698;4.886;2023-04-24T03:59:25;100122.59;;;5.49;85.20
1480;BME280;732;51.698;4.886;2023-04-24T04:02:05;100117.09;;;5.34;85.52
1480;BME280;732;51.698;4.886;2023-04-24T04:04:36;100131.75;;;5.38;85.46
1480;BME280;732;51.698;4.886;2023-04-24T04:07:07;100065.91;;;4.91;85.43
1480;BME280;732;51.698;4.886;2023-04-24T04:09:35;100128.59;;;5.35;85.21
1480;BME280;732;51.698;4.886;2023-04-24T04:12:03;100130.75;;;5.15;85.67
1480;BME280;732;51.698;4.886;2023-04-24T04:14:37;100132.88;;;5.03;85.77
1480;BME280;732;51.698;4.886;2023-04-24T04:17:08;100132.22;;;5.09;85.96
1480;BME280;732;51.698;4.886;2023-04-24T04:19:40;100129.25;;;5.12;85.81
1480;BME280;732;51.698;4.886;2023-04-24T04:22:14;100111.28;;;5.06;85.49
1480;BME280;732;51.698;4.886;2023-04-24T04:24:45;100111.44;;;4.96;86.17
1480;BME280;732;51.698;4.886;2023-04-24T04:27:16;100111.59;;;4.86;86.40
1480;BME280;732;51.698;4.886;2023-04-24T04:29:54;100137.38;;;5.02;86.25
1480;BME280;732;51.698;4.886;2023-04-24T04:32:24;100106.91;;;4.72;86.88
1480;BME280;732;51.698;4.886;2023-04-24T04:34:54;100141.81;;;4.85;87.23
1480;BME280;732;51.698;4.886;2023-04-24T04:37:25;100140.16;;;4.84;87.59
1480;BME280;732;51.698;4.886;2023-04-24T04:40:11;100098.91;;;4.55;87.39
1480;BME280;732;51.698;4.886;2023-04-24T04:42:51;100142.00;;;4.92;87.28
1480;BME280;732;51.698;4.886;2023-04-24T04:45:25;100154.13;;;4.86;87.66
1480;BME280;732;51.698;4.886;2023-04-24T04:48:22;100156.94;;;4.85;87.78
1480;BME280;732;51.698;4.886;2023-04-24T04:50:55;100168.56;;;4.84;87.89
1480;BME280;732;51.698;4.886;2023-04-24T04:53:24;100160.56;;;4.76;87.60
1480;BME280;732;51.698;4.886;2023-04-24T04:55:52;100176.50;;;4.76;87.69
1480;BME280;732;51.698;4.886;2023-04-24T04:58:27;100178.19;;;4.77;87.70
1480;BME280;732;51.698;4.886;2023-04-24T05:01:02;100178.69;;;4.80;87.50
1480;BME280;732;51.698;4.886;2023-04-24T05:03:37;100188.69;;;4.95;87.79
1480;BME280;732;51.698;4.886;2023-04-24T05:06:09;100197.53;;;5.12;86.95
1480;BME280;732;51.698;4.886;2023-04-24T05:08:38;100198.53;;;5.11;86.67
1480;BME280;732;51.698;4.886;2023-04-24T05:11:14;100203.84;;;5.11;86.82
1480;BME280;732;51.698;4.886;2023-04-24T05:13:42;100208.84;;;5.14;86.92
1480;BME280;732;51.698;4.886;2023-04-24T05:16:31;100208.63;;;4.90;87.57
1480;BME280;732;51.698;4.886;2023-04-24T05:19:00;100216.63;;;4.99;87.54
1480;BME280;732;51.698;4.886;2023-04-24T05:21:36;100179.72;;;4.87;87.64
1480;BME280;732;51.698;4.886;2023-04-24T05:24:04;100226.28;;;5.00;87.79
1480;BME280;732;51.698;4.886;2023-04-24T05:26:44;100228.38;;;4.88;87.99
1480;BME280;732;51.698;4.886;2023-04-24T05:29:15;100211.53;;;4.71;88.08
1480;BME280;732;51.698;4.886;2023-04-24T05:31:47;100197.59;;;4.69;87.84
1480;BME280;732;51.698;4.886;2023-04-24T05:34:18;100194.88;;;4.61;87.33
1480;BME280;732;51.698;4.886;2023-04-24T05:36:50;100254.59;;;4.83;87.15
1480;BME280;732;51.698;4.886;2023-04-24T05:39:19;100258.69;;;4.69;87.78
1480;BME280;732;51.698;4.886;2023-04-24T05:41:48;100272.97;;;4.68;88.00
1480;BME280;732;51.698;4.886;2023-04-24T05:44:16;100281.50;;;4.53;88.01
1480;BME280;732;51.698;4.886;2023-04-24T05:46:44;100246.66;;;4.30;87.97
1480;BME280;732;51.698;4.886;2023-04-24T05:49:14;100297.34;;;4.63;87.82
1480;BME280;732;51.698;4.886;2023-04-24T05:51:44;100283.97;;;4.47;87.59
1480;BME280;732;51.698;4.886;2023-04-24T05:54:13;100322.13;;;4.64;87.75
1480;BME280;732;51.698;4.886;2023-04-24T05:56:41;100328.25;;;4.64;87.93
1480;BME280;732;51.698;4.886;2023-04-24T05:59:17;100342.53;;;4.63;87.92
1480;BME280;732;51.698;4.886;2023-04-24T06:01:46;100342.41;;;4.73;87.71
1480;BME280;732;51.698;4.886;2023-04-24T06:04:21;100347.91;;;4.71;87.71
1480;BME280;732;51.698;4.886;2023-04-24T06:06:51;100352.84;;;4.66;87.66
1480;BME280;732;51.698;4.886;2023-04-24T06:09:22;100361.09;;;4.55;87.79
1480;BME280;732;51.698;4.886;2023-04-24T06:11:51;100361.84;;;4.47;87.05
1480;BME280;732;51.698;4.886;2023-04-24T06:14:23;100383.22;;;4.46;87.63
1480;BME280;732;51.698;4.886;2023-04-24T06:17:13;100370.72;;;4.20;86.96
1480;BME280;732;51.698;4.886;2023-04-24T06:19:46;100410.19;;;4.33;87.23
1480;BME280;732;51.698;4.886;2023-04-24T06:22:15;100387.72;;;4.09;87.16
1480;BME280;732;51.698;4.886;2023-04-24T06:24:43;100417.16;;;4.34;87.14
1480;BME280;732;51.698;4.886;2023-04-24T06:27:11;100419.81;;;4.34;86.53
1480;BME280;732;51.698;4.886;2023-04-24T06:29:41;100444.78;;;4.59;86.50
1480;BME280;732;51.698;4.886;2023-04-24T06:32:10;100452.00;;;4.67;86.21
1480;BME280;732;51.698;4.886;2023-04-24T06:34:41;100451.00;;;4.68;86.13
1480;BME280;732;51.698;4.886;2023-04-24T06:37:10;100454.97;;;4.64;85.95
1480;BME280;732;51.698;4.886;2023-04-24T06:39:38;100468.84;;;4.76;85.97
1480;BME280;732;51.698;4.886;2023-04-24T06:42:07;100473.81;;;4.52;86.48
1480;BME280;732;51.698;4.886;2023-04-24T06:44:36;100474.50;;;4.45;87.12
1480;BME280;732;51.698;4.886;2023-04-24T06:47:08;100482.81;;;4.60;86.97
1480;BME280;732;51.698;4.886;2023-04-24T06:49:37;100477.56;;;4.50;86.44
1480;BME280;732;51.698;4.886;2023-04-24T06:52:06;100489.34;;;4.65;86.29
1480;BME280;732;51.698;4.886;2023-04-24T06:54:35;100501.06;;;4.45;86.53
1480;BME280;732;51.698;4.886;2023-04-24T06:57:03;100509.59;;;4.30;86.62
1480;BME280;732;51.698;4.886;2023-04-24T06:59:31;100484.72;;;4.03;86.49
1480;BME280;732;51.698;4.886;2023-04-24T07:01:59;100524.75;;;4.38;85.86
1480;BME280;732;51.698;4.886;2023-04-24T07:04:35;100446.13;;;3.81;86.02
1480;BME280;732;51.698;4.886;2023-04-24T07:07:06;100527.53;;;4.18;85.35
1480;BME280;732;51.698;4.886;2023-04-24T07:09:40;100454.56;;;3.76;86.02
1480;BME280;732;51.698;4.886;2023-04-24T07:12:11;100540.81;;;4.18;85.84
1480;BME280;732;51.698;4.886;2023-04-24T07:14:40;100555.63;;;4.49;85.55
1480;BME280;732;51.698;4.886;2023-04-24T07:17:08;100503.13;;;4.33;85.37
1480;BME280;732;51.698;4.886;2023-04-24T07:19:37;100555.41;;;4.60;84.90
1480;BME280;732;51.698;4.886;2023-04-24T07:22:05;100560.03;;;4.58;85.03
1480;BME280;732;51.698;4.886;2023-04-24T07:24:34;100574.50;;;4.73;85.25
1480;BME280;732;51.698;4.886;2023-04-24T07:27:04;100582.66;;;4.62;85.07
1480;BME280;732;51.698;4.886;2023-04-24T07:29:35;100545.69;;;4.41;84.88
1480;BME280;732;51.698;4.886;2023-04-24T07:32:03;100594.72;;;4.74;85.03
1480;BME280;732;51.698;4.886;2023-04-24T07:34:33;100552.38;;;4.55;85.30
1480;BME280;732;51.698;4.886;2023-04-24T07:37:02;100585.25;;;4.90;84.21
1480;BME280;732;51.698;4.886;2023-04-24T07:39:33;100595.81;;;5.00;84.19
1480;BME280;732;51.698;4.886;2023-04-24T07:42:01;100605.75;;;4.80;82.29
1480;BME280;732;51.698;4.886;2023-04-24T07:44:30;100609.31;;;4.70;83.45
1480;BME280;732;51.698;4.886;2023-04-24T07:47:01;100608.63;;;4.68;83.29
1480;BME280;732;51.698;4.886;2023-04-24T07:49:29;100604.75;;;4.63;83.50
1480;BME280;732;51.698;4.886;2023-04-24T07:51:57;100633.78;;;4.74;82.59
1480;BME280;732;51.698;4.886;2023-04-24T07:54:27;100629.97;;;4.58;81.91
1480;BME280;732;51.698;4.886;2023-04-24T07:56:55;100633.69;;;4.66;82.49
1480;BME280;732;51.698;4.886;2023-04-24T07:59:24;100643.59;;;4.73;81.78
1480;BME280;732;51.698;4.886;2023-04-24T08:01:53;100649.94;;;4.81;80.02
1480;BME280;732;51.698;4.886;2023-04-24T08:04:22;100656.19;;;4.71;79.28
1480;BME280;732;51.698;4.886;2023-04-24T08:06:56;100657.72;;;4.92;80.12
1480;BME280;732;51.698;4.886;2023-04-24T08:09:24;100661.38;;;4.91;79.36
1480;BME280;732;51.698;4.886;2023-04-24T08:11:54;100669.34;;;5.09;79.88
1480;BME280;732;51.698;4.886;2023-04-24T08:14:23;100673.31;;;5.23;79.08
1480;BME280;732;51.698;4.886;2023-04-24T08:16:54;100641.72;;;5.20;77.22
1480;BME280;732;51.698;4.886;2023-04-24T08:19:23;100685.06;;;5.57;78.17
1480;BME280;732;51.698;4.886;2023-04-24T08:21:52;100692.19;;;5.30;76.52
1480;BME280;732;51.698;4.886;2023-04-24T08:24:22;100662.25;;;4.82;76.80
1480;BME280;732;51.698;4.886;2023-04-24T08:26:51;100699.88;;;4.59;78.01
1480;BME280;732;51.698;4.886;2023-04-24T08:29:24;100717.16;;;4.73;79.04
1480;BME280;732;51.698;4.886;2023-04-24T08:31:56;100727.41;;;4.58;78.59
1480;BME280;732;51.698;4.886;2023-04-24T08:34:25;100730.50;;;4.53;77.67
1480;BME280;732;51.698;4.886;2023-04-24T08:36:53;100698.25;;;4.38;78.09
1480;BME280;732;51.698;4.886;2023-04-24T08:39:21;100723.63;;;4.61;77.77
1480;BME280;732;51.698;4.886;2023-04-24T08:41:53;100715.19;;;4.75;78.10
1480;BME280;732;51.698;4.886;2023-04-24T08:44:21;100693.03;;;4.84;77.71
1480;BME280;732;51.698;4.886;2023-04-24T08:46:50;100736.25;;;5.32;77.23
1480;BME280;732;51.698;4.886;2023-04-24T08:49:24;100746.22;;;5.66;77.25
1480;BME280;732;51.698;4.886;2023-04-24T08:51:53;100747.41;;;6.08;74.70
1480;BME280;732;51.698;4.886;2023-04-24T08:54:21;100732.56;;;5.87;74.99
1480;BME280;732;51.698;4.886;2023-04-24T08:56:50;100747.56;;;5.88;75.22
1480;BME280;732;51.698;4.886;2023-04-24T08:59:22;100755.47;;;5.98;75.78
1480;BME280;732;51.698;4.886;2023-04-24T09:01:51;100764.94;;;5.75;75.64
1480;BME280;732;51.698;4.886;2023-04-24T09:04:24;100706.22;;;5.22;76.86
1480;BME280;732;51.698;4.886;2023-04-24T09:06:56;100766.94;;;5.27;74.86
1480;BME280;732;51.698;4.886;2023-04-24T09:09:25;100761.84;;;5.15;74.10
1480;BME280;732;51.698;4.886;2023-04-24T09:11:53;100779.56;;;5.25;73.77
1480;BME280;732;51.698;4.886;2023-04-24T09:14:23;100768.22;;;4.95;73.90
1480;BME280;732;51.698;4.886;2023-04-24T09:16:53;100781.63;;;5.03;72.98
1480;BME280;732;51.698;4.886;2023-04-24T09:19:23;100757.28;;;5.07;73.99
1480;BME280;732;51.698;4.886;2023-04-24T09:21:54;100771.28;;;5.28;71.02
1480;BME280;732;51.698;4.886;2023-04-24T09:24:23;100767.81;;;5.45;72.13
1480;BME280;732;51.698;4.886;2023-04-24T09:26:56;100791.09;;;5.97;71.76
1480;BME280;732;51.698;4.886;2023-04-24T09:29:25;100793.66;;;6.07;70.53
1480;BME280;732;51.698;4.886;2023-04-24T09:31:54;100794.75;;;5.78;68.82
1480;BME280;732;51.698;4.886;2023-04-24T09:34:25;100806.97;;;6.07;70.03
1480;BME280;732;51.698;4.886;2023-04-24T09:36:54;100793.38;;;5.74;69.45
1480;BME280;732;51.698;4.886;2023-04-24T09:39:22;100811.94;;;5.84;70.03
1480;BME280;732;51.698;4.886;2023-04-24T09:41:55;100818.00;;;5.76;71.16
1480;BME280;732;51.698;4.886;2023-04-24T09:44:27;100830.63;;;5.56;71.39
1480;BME280;732;51.698;4.886;2023-04-24T09:46:57;100837.31;;;5.60;70.31
1480;BME280;732;51.698;4.886;2023-04-24T09:49:29;100837.84;;;5.64;69.74
1480;BME280;732;51.698;4.886;2023-04-24T09:52:04;100839.00;;;5.79;71.75
1480;BME280;732;51.698;4.886;2023-04-24T09:54:33;100816.41;;;5.47;70.27
1480;BME280;732;51.698;4.886;2023-04-24T09:57:08;100829.81;;;5.28;71.13
1480;BME280;732;51.698;4.886;2023-04-24T09:59:45;100842.28;;;5.27;70.61
1480;BME280;732;51.698;4.886;2023-04-24T10:02:17;100865.06;;;5.58;70.93
1480;BME280;732;51.698;4.886;2023-04-24T10:04:56;100820.75;;;5.48;71.32
1480;BME280;732;51.698;4.886;2023-04-24T10:07:27;100856.28;;;5.93;69.66
1480;BME280;732;51.698;4.886;2023-04-24T10:09:55;100864.34;;;6.01;70.70
1480;BME280;732;51.698;4.886;2023-04-24T10:12:27;100849.97;;;6.12;69.94
1480;BME280;732;51.698;4.886;2023-04-24T10:14:56;100870.44;;;6.30;69.94
1480;BME280;732;51.698;4.886;2023-04-24T10:17:27;100876.59;;;6.12;68.97
1480;BME280;732;51.698;4.886;2023-04-24T10:19:58;100893.16;;;5.88;69.18
1480;BME280;732;51.698;4.886;2023-04-24T10:22:28;100896.19;;;5.57;70.13
1480;BME280;732;51.698;4.886;2023-04-24T10:25:03;100889.13;;;5.38;71.12
1480;BME280;732;51.698;4.886;2023-04-24T10:27:32;100891.59;;;5.12;71.49
1480;BME280;732;51.698;4.886;2023-04-24T10:30:02;100868.19;;;4.87;71.35
1480;BME280;732;51.698;4.886;2023-04-24T10:32:30;100891.31;;;5.25;71.63
1480;BME280;732;51.698;4.886;2023-04-24T10:35:00;100887.84;;;5.42;70.27
1480;BME280;732;51.698;4.886;2023-04-24T10:37:36;100841.44;;;5.54;70.09
1480;BME280;732;51.698;4.886;2023-04-24T10:40:09;100897.56;;;6.43;70.15
1480;BME280;732;51.698;4.886;2023-04-24T10:42:40;100893.88;;;6.89;66.38
1480;BME280;732;51.698;4.886;2023-04-24T10:45:18;100894.47;;;7.09;65.63
1480;BME280;732;51.698;4.886;2023-04-24T10:47:58;100893.91;;;7.74;64.75
1480;BME280;732;51.698;4.886;2023-04-24T10:50:47;100905.31;;;7.93;64.97
1480;BME280;732;51.698;4.886;2023-04-24T10:53:21;100874.63;;;7.46;64.57
1480;BME280;732;51.698;4.886;2023-04-24T10:55:51;100876.09;;;7.32;64.04
1480;BME280;732;51.698;4.886;2023-04-24T10:58:22;100877.44;;;7.36;64.29
1480;BME280;732;51.698;4.886;2023-04-24T11:00:58;100896.78;;;7.04;65.49
1480;BME280;732;51.698;4.886;2023-04-24T11:03:30;100912.97;;;7.02;65.59
1480;BME280;732;51.698;4.886;2023-04-24T11:06:03;100903.53;;;6.90;65.67
1480;BME280;732;51.698;4.886;2023-04-24T11:08:39;100895.38;;;6.65;65.78
1480;BME280;732;51.698;4.886;2023-04-24T11:11:12;100933.41;;;6.67;66.14
1480;BME280;732;51.698;4.886;2023-04-24T11:14:04;100926.50;;;6.82;66.84
1480;BME280;732;51.698;4.886;2023-04-24T11:16:51;100912.97;;;6.76;66.20
1480;BME280;732;51.698;4.886;2023-04-24T11:19:23;100877.28;;;6.32;67.04
1480;BME280;732;51.698;4.886;2023-04-24T11:21:58;100937.44;;;6.97;66.79
1480;BME280;732;51.698;4.886;2023-04-24T11:24:38;100944.25;;;7.26;66.02
1480;BME280;732;51.698;4.886;2023-04-24T11:27:19;100930.91;;;7.18;65.63
1480;BME280;732;51.698;4.886;2023-04-24T11:29:49;100932.78;;;7.26;63.88
1480;BME280;732;51.698;4.886;2023-04-24T11:32:29;100956.13;;;7.58;63.25
1480;BME280;732;51.698;4.886;2023-04-24T11:34:59;100958.06;;;7.48;63.09
1480;BME280;732;51.698;4.886;2023-04-24T11:37:34;100952.53;;;7.41;64.00
1480;BME280;732;51.698;4.886;2023-04-24T11:40:04;100940.59;;;7.27;63.94
1480;BME280;732;51.698;4.886;2023-04-24T11:42:34;100954.25;;;7.51;64.90
1480;BME280;732;51.698;4.886;2023-04-24T11:45:08;100961.97;;;7.27;63.52
1480;BME280;732;51.698;4.886;2023-04-24T11:47:38;100938.38;;;7.14;64.63
1480;BME280;732;51.698;4.886;2023-04-24T11:50:13;100953.78;;;7.29;64.67
1480;BME280;732;51.698;4.886;2023-04-24T11:52:45;100938.63;;;7.29;64.72
1480;BME280;732;51.698;4.886;2023-04-24T11:55:25;100977.59;;;7.22;64.92
1480;BME280;732;51.698;4.886;2023-04-24T11:57:56;100988.34;;;7.04;65.13
1480;BME280;732;51.698;4.886;2023-04-24T12:00:29;100940.34;;;6.60;64.96
1480;BME280;732;51.698;4.886;2023-04-24T12:03:06;100968.66;;;6.43;65.41
1480;BME280;732;51.698;4.886;2023-04-24T12:05:35;101008.09;;;6.39;66.64
1480;BME280;732;51.698;4.886;2023-04-24T12:08:05;100984.75;;;6.05;68.48
1480;BME280;732;51.698;4.886;2023-04-24T12:10:33;101011.09;;;6.26;69.38
1480;BME280;732;51.698;4.886;2023-04-24T12:13:02;101024.88;;;6.22;69.92
1480;BME280;732;51.698;4.886;2023-04-24T12:15:33;101022.00;;;5.87;69.77
1480;BME280;732;51.698;4.886;2023-04-24T12:18:03;101027.66;;;6.02;70.22
1480;BME280;732;51.698;4.886;2023-04-24T12:20:34;101035.06;;;6.08;69.40
1480;BME280;732;51.698;4.886;2023-04-24T12:23:04;101018.88;;;5.92;67.35
1480;BME280;732;51.698;4.886;2023-04-24T12:25:33;101029.09;;;5.96;66.12
1480;BME280;732;51.698;4.886;2023-04-24T12:28:18;101028.09;;;6.53;66.93
1480;BME280;732;51.698;4.886;2023-04-24T12:30:49;101031.34;;;6.65;64.48
1480;BME280;732;51.698;4.886;2023-04-24T12:33:18;101013.78;;;6.26;65.50
1480;BME280;732;51.698;4.886;2023-04-24T12:35:51;101044.28;;;6.14;66.85
1480;BME280;732;51.698;4.886;2023-04-24T12:38:25;101019.25;;;6.25;67.83
1480;BME280;732;51.698;4.886;2023-04-24T12:41:02;101014.03;;;6.69;64.96
1480;BME280;732;51.698;4.886;2023-04-24T12:43:31;101028.38;;;6.68;65.23
1480;BME280;732;51.698;4.886;2023-04-24T12:46:00;101043.16;;;6.98;64.54
1480;BME280;732;51.698;4.886;2023-04-24T12:48:28;101032.84;;;7.04;63.29
1480;BME280;732;51.698;4.886;2023-04-24T12:50:57;101060.50;;;7.21;63.30
1480;BME280;732;51.698;4.886;2023-04-24T12:53:29;101059.09;;;7.35;63.46
1480;BME280;732;51.698;4.886;2023-04-24T12:55:58;101069.03;;;7.06;63.15
1480;BME280;732;51.698;4.886;2023-04-24T12:58:26;101083.78;;;6.74;63.57
1480;BME280;732;51.698;4.886;2023-04-24T13:00:54;101071.81;;;6.04;64.24
1480;BME280;732;51.698;4.886;2023-04-24T13:03:22;101068.63;;;6.19;65.36
1480;BME280;732;51.698;4.886;2023-04-24T13:05:51;101054.97;;;5.76;67.54
1480;BME280;732;51.698;4.886;2023-04-24T13:08:19;101064.69;;;5.48;70.49
1480;BME280;732;51.698;4.886;2023-04-24T13:10:49;101043.19;;;5.31;71.46
1480;BME280;732;51.698;4.886;2023-04-24T13:13:18;101068.28;;;6.04;72.15
1480;BME280;732;51.698;4.886;2023-04-24T13:15:47;101056.31;;;6.64;71.76
1480;BME280;732;51.698;4.886;2023-04-24T13:18:15;101064.50;;;6.80;69.08
1480;BME280;732;51.698;4.886;2023-04-24T13:20:43;101070.44;;;7.10;70.65
1480;BME280;732;51.698;4.886;2023-04-24T13:23:12;101073.44;;;7.33;68.34
1480;BME280;732;51.698;4.886;2023-04-24T13:25:41;101052.81;;;7.44;66.95
1480;BME280;732;51.698;4.886;2023-04-24T13:28:11;101060.44;;;7.65;64.45
1480;BME280;732;51.698;4.886;2023-04-24T13:30:39;101076.00;;;7.96;64.08
1480;BME280;732;51.698;4.886;2023-04-24T13:33:07;101072.16;;;7.98;61.92
1480;BME280;732;51.698;4.886;2023-04-24T13:35:35;101057.19;;;8.06;60.79
1480;BME280;732;51.698;4.886;2023-04-24T13:38:04;101078.44;;;8.16;60.62
1480;BME280;732;51.698;4.886;2023-04-24T13:40:33;101070.19;;;8.01;62.51
1480;BME280;732;51.698;4.886;2023-04-24T13:43:02;101069.19;;;8.02;60.99
1480;BME280;732;51.698;4.886;2023-04-24T13:45:32;101043.63;;;7.99;61.42
1480;BME280;732;51.698;4.886;2023-04-24T13:48:00;101064.66;;;8.45;60.79
1480;BME280;732;51.698;4.886;2023-04-24T13:50:30;101069.38;;;8.08;61.56
1480;BME280;732;51.698;4.886;2023-04-24T13:52:58;101062.91;;;8.19;62.52